sensor_id;sensor_type;location;lat;lon;timestamp;temperature;humidity
8093;DHT22;4089;52.420;13.334;2023-05-06T00:01:04;10.90;99.90
8093;DHT22;4089;52.420;13.334;2023-05-06T00:03:31;10.90;99.90
8093;DHT22;4089;52.420;13.334;2023-05-06T00:05:58;10.80;99.90
8093;DHT22;4089;52.420;13.334;2023-05-06T00:08:25;10.70;99.90
8093;DHT22;4089;52.420;13.334;2023-05-06T00:10:52;10.70;99.90
8093;DHT22;4089;52.420;13.334;2023-05-06T00:13:18;10.70;99.90
8093;DHT22;4089;52.420;13.334;2023-05-06T00:15:45;10.70;99.90
8093;DHT22;4089;52.420;13.334;2023-05-06T00:18:12;10.60;99.90
8093;DHT22;4089;52.420;13.334;2023-05-06T00:20:40;10.60;99.90
8093;DHT22;4089;52.420;13.334;2023-05-06T00:23:07;10.60;99.90
8093;DHT22;4089;52.420;13.334;2023-05-06T00:25:34;10.60;99.90
8093;DHT22;4089;52.420;13.334;2023-05-06T00:28:01;10.50;99.90
8093;DHT22;4089;52.420;13.334;2023-05-06T00:30:27;10.50;99.90
8093;DHT22;4089;52.420;13.334;2023-05-06T00:32:54;10.40;99.90
8093;DHT22;4089;52.420;13.334;2023-05-06T00:35:21;10.40;99.90
8093;DHT22;4089;52.420;13.334;2023-05-06T00:38:08;10.30;99.90
8093;DHT22;4089;52.420;13.334;2023-05-06T00:40:35;10.30;99.90
8093;DHT22;4089;52.420;13.334;2023-05-06T00:43:02;10.30;99.90
8093;DHT22;4089;52.420;13.334;2023-05-06T00:45:29;10.20;99.90
8093;DHT22;4089;52.420;13.334;2023-05-06T00:47:57;10.20;99.90
8093;DHT22;4089;52.420;13.334;2023-05-06T00:50:25;10.20;99.90
8093;DHT22;4089;52.420;13.334;2023-05-06T00:52:54;10.20;99.90
8093;DHT22;4089;52.420;13.334;2023-05-06T00:55:22;10.20;99.90
8093;DHT22;4089;52.420;13.334;2023-05-06T00:57:50;10.20;99.90
8093;DHT22;4089;52.420;13.334;2023-05-06T01:00:18;10.20;99.90
8093;DHT22;4089;52.420;13.334;2023-05-06T01:02:46;10.20;99.90
8093;DHT22;4089;52.420;13.334;2023-05-06T01:05:19;10.20;99.90
8093;DHT22;4089;52.420;13.334;2023-05-06T01:07:52;10.20;99.90
8093;DHT22;4089;52.420;13.334;2023-05-06T01:16:05;10.30;99.90
8093;DHT22;4089;52.420;13.334;2023-05-06T01:18:35;10.30;99.90
8093;DHT22;4089;52.420;13.334;2023-05-06T01:21:04;10.30;99.90
8093;DHT22;4089;52.420;13.334;2023-05-06T01:23:54;10.20;99.90
8093;DHT22;4089;52.420;13.334;2023-05-06T01:26:21;10.20;99.90
8093;DHT22;4089;52.420;13.334;2023-05-06T01:28:48;10.20;99.90
8093;DHT22;4089;52.420;13.334;2023-05-06T01:31:26;10.10;99.90
8093;DHT22;4089;52.420;13.334;2023-05-06T01:34:07;10.20;99.90
8093;DHT22;4089;52.420;13.334;2023-05-06T01:39:17;10.10;99.90
8093;DHT22;4089;52.420;13.334;2023-05-06T01:41:47;10.10;99.90
8093;DHT22;4089;52.420;13.334;2023-05-06T01:44:17;10.10;99.90
8093;DHT22;4089;52.420;13.334;2023-05-06T01:46:47;10.10;99.90
8093;DHT22;4089;52.420;13.334;2023-05-06T01:49:15;10.10;99.90
8093;DHT22;4089;52.420;13.334;2023-05-06T01:51:48;10.10;99.90
8093;DHT22;4089;52.420;13.334;2023-05-06T01:54:15;10.10;99.90
8093;DHT22;4089;52.420;13.334;2023-05-06T01:56:41;10.20;99.90
8093;DHT22;4089;52.420;13.334;2023-05-06T01:59:08;10.20;99.90
8093;DHT22;4089;52.420;13.334;2023-05-06T02:01:35;10.20;99.90
8093;DHT22;4089;52.420;13.334;2023-05-06T02:04:02;10.20;99.90
8093;DHT22;4089;52.420;13.334;2023-05-06T02:06:29;10.20;99.90
8093;DHT22;4089;52.420;13.334;2023-05-06T02:08:57;10.20;99.90
8093;DHT22;4089;52.420;13.334;2023-05-06T02:11:23;10.30;99.90
8093;DHT22;4089;52.420;13.334;2023-05-06T02:13:51;10.20;99.90
8093;DHT22;4089;52.420;13.334;2023-05-06T02:16:18;10.20;99.90
8093;DHT22;4089;52.420;13.334;2023-05-06T02:18:45;10.20;99.90
8093;DHT22;4089;52.420;13.334;2023-05-06T02:21:12;10.30;99.90
8093;DHT22;4089;52.420;13.334;2023-05-06T02:23:39;10.20;99.90
8093;DHT22;4089;52.420;13.334;2023-05-06T02:26:06;10.20;99.90
8093;DHT22;4089;52.420;13.334;2023-05-06T02:28:32;10.20;99.90
8093;DHT22;4089;52.420;13.334;2023-05-06T02:30:59;10.20;99.90
8093;DHT22;4089;52.420;13.334;2023-05-06T02:33:26;10.10;99.90
8093;DHT22;4089;52.420;13.334;2023-05-06T02:35:52;10.10;99.90
8093;DHT22;4089;52.420;13.334;2023-05-06T02:38:20;10.00;99.90
8093;DHT22;4089;52.420;13.334;2023-05-06T02:40:47;10.00;99.90
8093;DHT22;4089;52.420;13.334;2023-05-06T02:43:14;10.00;99.90
8093;DHT22;4089;52.420;13.334;2023-05-06T02:45:40;10.00;99.90
8093;DHT22;4089;52.420;13.334;2023-05-06T02:48:07;9.90;99.90
8093;DHT22;4089;52.420;13.334;2023-05-06T02:50:34;9.80;99.90
8093;DHT22;4089;52.420;13.334;2023-05-06T02:53:01;9.90;99.90
8093;DHT22;4089;52.420;13.334;2023-05-06T02:55:28;9.80;99.90
8093;DHT22;4089;52.420;13.334;2023-05-06T02:57:55;9.80;99.90
8093;DHT22;4089;52.420;13.334;2023-05-06T03:00:22;9.80;99.90
8093;DHT22;4089;52.420;13.334;2023-05-06T03:02:49;9.80;99.90
8093;DHT22;4089;52.420;13.334;2023-05-06T03:05:15;9.70;99.90
8093;DHT22;4089;52.420;13.334;2023-05-06T03:07:42;9.70;99.90
8093;DHT22;4089;52.420;13.334;2023-05-06T03:10:09;9.80;99.90
8093;DHT22;4089;52.420;13.334;2023-05-06T03:12:36;9.70;99.90
8093;DHT22;4089;52.420;13.334;2023-05-06T03:15:03;9.70;99.90
8093;DHT22;4089;52.420;13.334;2023-05-06T03:17:30;9.70;99.90
8093;DHT22;4089;52.420;13.334;2023-05-06T03:19:57;9.70;99.90
8093;DHT22;4089;52.420;13.334;2023-05-06T03:22:24;9.70;99.90
8093;DHT22;4089;52.420;13.334;2023-05-06T03:24:51;9.60;99.90
8093;DHT22;4089;52.420;13.334;2023-05-06T03:27:17;9.60;99.90
8093;DHT22;4089;52.420;13.334;2023-05-06T03:29:44;9.50;99.90
8093;DHT22;4089;52.420;13.334;2023-05-06T03:32:11;9.50;99.90
8093;DHT22;4089;52.420;13.334;2023-05-06T03:34:38;9.50;99.90
8093;DHT22;4089;52.420;13.334;2023-05-06T03:37:04;9.40;99.90
8093;DHT22;4089;52.420;13.334;2023-05-06T03:39:31;9.30;99.90
8093;DHT22;4089;52.420;13.334;2023-05-06T03:41:58;9.30;99.90
8093;DHT22;4089;52.420;13.334;2023-05-06T03:44:24;9.30;99.90
8093;DHT22;4089;52.420;13.334;2023-05-06T03:46:51;9.30;99.90
8093;DHT22;4089;52.420;13.334;2023-05-06T03:49:18;9.30;99.90
8093;DHT22;4089;52.420;13.334;2023-05-06T03:51:46;9.20;99.90
8093;DHT22;4089;52.420;13.334;2023-05-06T03:54:13;9.30;99.90
8093;DHT22;4089;52.420;13.334;2023-05-06T03:56:40;9.30;99.90
8093;DHT22;4089;52.420;13.334;2023-05-06T03:59:06;9.10;99.90
8093;DHT22;4089;52.420;13.334;2023-05-06T04:01:33;9.10;99.90
8093;DHT22;4089;52.420;13.334;2023-05-06T04:04:00;9.20;99.90
8093;DHT22;4089;52.420;13.334;2023-05-06T04:06:27;9.20;99.90
8093;DHT22;4089;52.420;13.334;2023-05-06T04:08:54;9.20;99.90
8093;DHT22;4089;52.420;13.334;2023-05-06T04:11:21;9.10;99.90
8093;DHT22;4089;52.420;13.334;2023-05-06T04:13:48;9.10;99.90
8093;DHT22;4089;52.420;13.334;2023-05-06T04:16:14;9.10;99.90
8093;DHT22;4089;52.420;13.334;2023-05-06T04:18:41;9.00;99.90
8093;DHT22;4089;52.420;13.334;2023-05-06T04:21:09;9.00;99.90
8093;DHT22;4089;52.420;13.334;2023-05-06T04:23:37;8.90;99.90
8093;DHT22;4089;52.420;13.334;2023-05-06T04:26:04;8.90;99.90
8093;DHT22;4089;52.420;13.334;2023-05-06T04:28:31;8.90;99.90
8093;DHT22;4089;52.420;13.334;2023-05-06T04:30:58;8.80;99.90
8093;DHT22;4089;52.420;13.334;2023-05-06T04:33:25;8.80;99.90
8093;DHT22;4089;52.420;13.334;2023-05-06T04:35:53;8.90;99.90
8093;DHT22;4089;52.420;13.334;2023-05-06T04:38:20;8.90;99.90
8093;DHT22;4089;52.420;13.334;2023-05-06T04:40:48;8.90;99.90
8093;DHT22;4089;52.420;13.334;2023-05-06T04:43:15;8.90;99.90
8093;DHT22;4089;52.420;13.334;2023-05-06T04:45:42;8.90;99.90
8093;DHT22;4089;52.420;13.334;2023-05-06T04:48:18;8.90;99.90
8093;DHT22;4089;52.420;13.334;2023-05-06T04:50:45;8.90;99.90
8093;DHT22;4089;52.420;13.334;2023-05-06T04:53:13;8.90;99.90
8093;DHT22;4089;52.420;13.334;2023-05-06T04:55:40;8.90;99.90
8093;DHT22;4089;52.420;13.334;2023-05-06T04:58:06;8.90;99.90
8093;DHT22;4089;52.420;13.334;2023-05-06T05:00:34;8.90;99.90
8093;DHT22;4089;52.420;13.334;2023-05-06T05:03:00;8.90;99.90
8093;DHT22;4089;52.420;13.334;2023-05-06T05:05:28;8.90;99.90
8093;DHT22;4089;52.420;13.334;2023-05-06T05:07:55;8.90;99.90
8093;DHT22;4089;52.420;13.334;2023-05-06T05:10:21;8.90;99.90
8093;DHT22;4089;52.420;13.334;2023-05-06T05:12:48;8.90;99.90
8093;DHT22;4089;52.420;13.334;2023-05-06T05:15:15;8.90;99.90
8093;DHT22;4089;52.420;13.334;2023-05-06T05:17:43;8.90;99.90
8093;DHT22;4089;52.420;13.334;2023-05-06T05:20:10;8.90;99.90
8093;DHT22;4089;52.420;13.334;2023-05-06T05:22:37;8.90;99.90
8093;DHT22;4089;52.420;13.334;2023-05-06T05:25:04;9.00;99.90
8093;DHT22;4089;52.420;13.334;2023-05-06T05:27:33;8.90;99.90
8093;DHT22;4089;52.420;13.334;2023-05-06T05:30:00;8.90;99.90
8093;DHT22;4089;52.420;13.334;2023-05-06T05:32:27;8.80;99.90
8093;DHT22;4089;52.420;13.334;2023-05-06T05:34:53;8.80;99.90
8093;DHT22;4089;52.420;13.334;2023-05-06T05:37:20;8.80;99.90
8093;DHT22;4089;52.420;13.334;2023-05-06T05:39:47;8.70;99.90
8093;DHT22;4089;52.420;13.334;2023-05-06T05:42:14;8.70;99.90
8093;DHT22;4089;52.420;13.334;2023-05-06T05:44:41;8.70;99.90
8093;DHT22;4089;52.420;13.334;2023-05-06T05:47:07;8.70;99.90
8093;DHT22;4089;52.420;13.334;2023-05-06T05:49:34;8.60;99.90
8093;DHT22;4089;52.420;13.334;2023-05-06T05:52:01;8.70;99.90
8093;DHT22;4089;52.420;13.334;2023-05-06T05:54:28;8.70;99.90
8093;DHT22;4089;52.420;13.334;2023-05-06T05:56:55;8.80;99.90
8093;DHT22;4089;52.420;13.334;2023-05-06T05:59:24;8.80;99.90
8093;DHT22;4089;52.420;13.334;2023-05-06T06:01:51;8.80;99.90
8093;DHT22;4089;52.420;13.334;2023-05-06T06:04:18;8.80;99.90
8093;DHT22;4089;52.420;13.334;2023-05-06T06:06:45;8.80;99.90
8093;DHT22;4089;52.420;13.334;2023-05-06T06:09:12;8.70;99.90
8093;DHT22;4089;52.420;13.334;2023-05-06T06:11:38;8.70;99.90
8093;DHT22;4089;52.420;13.334;2023-05-06T06:14:05;8.70;99.90
8093;DHT22;4089;52.420;13.334;2023-05-06T06:16:32;8.80;99.90
8093;DHT22;4089;52.420;13.334;2023-05-06T06:18:59;8.90;99.90
8093;DHT22;4089;52.420;13.334;2023-05-06T06:21:26;8.80;99.90
8093;DHT22;4089;52.420;13.334;2023-05-06T06:23:53;8.70;99.90
8093;DHT22;4089;52.420;13.334;2023-05-06T06:26:19;8.80;99.90
8093;DHT22;4089;52.420;13.334;2023-05-06T06:28:47;8.90;99.90
8093;DHT22;4089;52.420;13.334;2023-05-06T06:31:13;8.90;99.90
8093;DHT22;4089;52.420;13.334;2023-05-06T06:33:40;8.90;99.90
8093;DHT22;4089;52.420;13.334;2023-05-06T06:36:07;8.80;99.90
8093;DHT22;4089;52.420;13.334;2023-05-06T06:38:34;8.80;99.90
8093;DHT22;4089;52.420;13.334;2023-05-06T06:41:01;8.70;99.90
8093;DHT22;4089;52.420;13.334;2023-05-06T06:43:27;8.60;99.90
8093;DHT22;4089;52.420;13.334;2023-05-06T06:45:54;8.70;99.90
8093;DHT22;4089;52.420;13.334;2023-05-06T06:48:22;8.80;99.90
8093;DHT22;4089;52.420;13.334;2023-05-06T06:50:49;8.90;99.90
8093;DHT22;4089;52.420;13.334;2023-05-06T06:53:16;8.90;99.90
8093;DHT22;4089;52.420;13.334;2023-05-06T06:55:44;8.90;99.90
8093;DHT22;4089;52.420;13.334;2023-05-06T06:58:11;8.90;99.90
8093;DHT22;4089;52.420;13.334;2023-05-06T07:00:38;9.00;99.90
8093;DHT22;4089;52.420;13.334;2023-05-06T07:03:05;8.90;99.90
8093;DHT22;4089;52.420;13.334;2023-05-06T07:05:31;9.00;99.90
8093;DHT22;4089;52.420;13.334;2023-05-06T07:07:58;9.10;99.90
8093;DHT22;4089;52.420;13.334;2023-05-06T07:10:25;9.20;99.90
8093;DHT22;4089;52.420;13.334;2023-05-06T07:12:52;9.30;99.90
8093;DHT22;4089;52.420;13.334;2023-05-06T07:15:19;9.30;99.90
8093;DHT22;4089;52.420;13.334;2023-05-06T07:17:46;9.30;99.90
8093;DHT22;4089;52.420;13.334;2023-05-06T07:20:13;9.30;99.90
8093;DHT22;4089;52.420;13.334;2023-05-06T07:22:41;9.20;99.90
8093;DHT22;4089;52.420;13.334;2023-05-06T07:25:09;9.20;99.90
8093;DHT22;4089;52.420;13.334;2023-05-06T07:27:36;9.10;99.90
8093;DHT22;4089;52.420;13.334;2023-05-06T07:30:03;9.10;99.90
8093;DHT22;4089;52.420;13.334;2023-05-06T07:32:30;9.20;99.90
8093;DHT22;4089;52.420;13.334;2023-05-06T07:34:57;9.20;99.90
8093;DHT22;4089;52.420;13.334;2023-05-06T07:37:24;9.30;99.90
8093;DHT22;4089;52.420;13.334;2023-05-06T07:39:51;9.30;99.90
8093;DHT22;4089;52.420;13.334;2023-05-06T07:42:17;9.30;99.90
8093;DHT22;4089;52.420;13.334;2023-05-06T07:44:44;9.30;99.90
8093;DHT22;4089;52.420;13.334;2023-05-06T07:47:15;9.30;99.90
8093;DHT22;4089;52.420;13.334;2023-05-06T07:49:42;9.30;99.90
8093;DHT22;4089;52.420;13.334;2023-05-06T07:52:09;9.40;99.90
8093;DHT22;4089;52.420;13.334;2023-05-06T07:54:36;9.40;99.90
8093;DHT22;4089;52.420;13.334;2023-05-06T07:57:02;9.30;99.90
8093;DHT22;4089;52.420;13.334;2023-05-06T07:59:29;9.30;99.90
8093;DHT22;4089;52.420;13.334;2023-05-06T08:01:56;9.30;99.90
8093;DHT22;4089;52.420;13.334;2023-05-06T08:04:23;9.20;99.90
8093;DHT22;4089;52.420;13.334;2023-05-06T08:06:50;9.30;99.90
8093;DHT22;4089;52.420;13.334;2023-05-06T08:09:16;9.30;99.90
8093;DHT22;4089;52.420;13.334;2023-05-06T08:11:49;9.30;99.90
8093;DHT22;4089;52.420;13.334;2023-05-06T08:14:16;9.30;99.90
8093;DHT22;4089;52.420;13.334;2023-05-06T08:16:43;9.30;99.90
8093;DHT22;4089;52.420;13.334;2023-05-06T08:19:10;9.30;99.90
8093;DHT22;4089;52.420;13.334;2023-05-06T08:21:36;9.30;99.90
8093;DHT22;4089;52.420;13.334;2023-05-06T08:24:03;9.30;99.90
8093;DHT22;4089;52.420;13.334;2023-05-06T08:26:30;9.40;99.90
8093;DHT22;4089;52.420;13.334;2023-05-06T08:28:57;9.50;99.90
8093;DHT22;4089;52.420;13.334;2023-05-06T08:31:24;9.50;99.90
8093;DHT22;4089;52.420;13.334;2023-05-06T08:33:52;9.40;99.90
8093;DHT22;4089;52.420;13.334;2023-05-06T08:36:20;9.40;99.90
8093;DHT22;4089;52.420;13.334;2023-05-06T08:38:47;9.40;99.90
8093;DHT22;4089;52.420;13.334;2023-05-06T08:41:18;9.50;99.90
8093;DHT22;4089;52.420;13.334;2023-05-06T08:43:46;9.50;99.90
8093;DHT22;4089;52.420;13.334;2023-05-06T08:46:14;9.50;99.90
8093;DHT22;4089;52.420;13.334;2023-05-06T08:48:41;9.50;99.90
8093;DHT22;4089;52.420;13.334;2023-05-06T08:51:09;9.40;99.90
8093;DHT22;4089;52.420;13.334;2023-05-06T08:53:42;9.40;99.90
8093;DHT22;4089;52.420;13.334;2023-05-06T08:56:12;9.50;99.90
8093;DHT22;4089;52.420;13.334;2023-05-06T08:58:44;9.50;99.90
8093;DHT22;4089;52.420;13.334;2023-05-06T09:01:14;9.50;99.90
8093;DHT22;4089;52.420;13.334;2023-05-06T09:03:41;9.50;99.90
8093;DHT22;4089;52.420;13.334;2023-05-06T09:06:09;9.60;99.90
8093;DHT22;4089;52.420;13.334;2023-05-06T09:08:36;9.50;99.90
8093;DHT22;4089;52.420;13.334;2023-05-06T09:11:19;9.40;99.90
8093;DHT22;4089;52.420;13.334;2023-05-06T09:13:46;9.50;99.90
8093;DHT22;4089;52.420;13.334;2023-05-06T09:16:27;9.50;99.90
8093;DHT22;4089;52.420;13.334;2023-05-06T09:18:55;9.60;99.90
8093;DHT22;4089;52.420;13.334;2023-05-06T09:21:35;9.60;99.90
8093;DHT22;4089;52.420;13.334;2023-05-06T09:24:04;9.60;99.90
8093;DHT22;4089;52.420;13.334;2023-05-06T09:26:33;9.60;99.90
8093;DHT22;4089;52.420;13.334;2023-05-06T09:29:01;9.60;99.90
8093;DHT22;4089;52.420;13.334;2023-05-06T09:31:28;9.50;99.90
8093;DHT22;4089;52.420;13.334;2023-05-06T09:33:56;9.50;99.90
8093;DHT22;4089;52.420;13.334;2023-05-06T09:36:25;9.50;99.90
8093;DHT22;4089;52.420;13.334;2023-05-06T09:38:53;9.60;99.90
8093;DHT22;4089;52.420;13.334;2023-05-06T09:41:22;9.70;99.90
8093;DHT22;4089;52.420;13.334;2023-05-06T09:43:51;9.70;99.90
8093;DHT22;4089;52.420;13.334;2023-05-06T09:46:21;9.80;99.90
8093;DHT22;4089;52.420;13.334;2023-05-06T09:48:52;9.80;99.90
8093;DHT22;4089;52.420;13.334;2023-05-06T09:51:19;9.80;99.90
8093;DHT22;4089;52.420;13.334;2023-05-06T09:53:46;9.80;99.90
8093;DHT22;4089;52.420;13.334;2023-05-06T09:56:15;9.80;99.90
8093;DHT22;4089;52.420;13.334;2023-05-06T09:58:42;9.90;99.90
8093;DHT22;4089;52.420;13.334;2023-05-06T10:01:10;9.90;99.90
8093;DHT22;4089;52.420;13.334;2023-05-06T10:03:45;9.90;99.90
8093;DHT22;4089;52.420;13.334;2023-05-06T10:06:12;10.00;99.90
8093;DHT22;4089;52.420;13.334;2023-05-06T10:08:39;10.00;99.90
8093;DHT22;4089;52.420;13.334;2023-05-06T10:11:07;10.10;99.90
8093;DHT22;4089;52.420;13.334;2023-05-06T10:13:35;10.00;99.90
8093;DHT22;4089;52.420;13.334;2023-05-06T10:16:05;10.00;99.90
8093;DHT22;4089;52.420;13.334;2023-05-06T10:18:33;9.90;99.90
8093;DHT22;4089;52.420;13.334;2023-05-06T10:21:02;9.90;99.90
8093;DHT22;4089;52.420;13.334;2023-05-06T10:23:43;9.80;99.90
8093;DHT22;4089;52.420;13.334;2023-05-06T10:26:15;9.90;99.90
8093;DHT22;4089;52.420;13.334;2023-05-06T10:28:45;9.90;99.90
8093;DHT22;4089;52.420;13.334;2023-05-06T10:31:15;9.90;99.90
8093;DHT22;4089;52.420;13.334;2023-05-06T10:33:47;9.90;99.90
8093;DHT22;4089;52.420;13.334;2023-05-06T10:36:25;10.00;99.90
8093;DHT22;4089;52.420;13.334;2023-05-06T10:38:55;10.10;99.90
8093;DHT22;4089;52.420;13.334;2023-05-06T10:41:24;9.90;99.90
8093;DHT22;4089;52.420;13.334;2023-05-06T10:43:54;10.00;99.90
8093;DHT22;4089;52.420;13.334;2023-05-06T10:46:27;10.10;99.90
8093;DHT22;4089;52.420;13.334;2023-05-06T10:51:31;10.10;99.90
8093;DHT22;4089;52.420;13.334;2023-05-06T10:54:06;10.00;99.90
8093;DHT22;4089;52.420;13.334;2023-05-06T10:56:35;10.00;99.90
8093;DHT22;4089;52.420;13.334;2023-05-06T10:59:06;10.10;99.90
8093;DHT22;4089;52.420;13.334;2023-05-06T11:01:38;10.10;99.90
8093;DHT22;4089;52.420;13.334;2023-05-06T11:04:14;10.00;99.90
8093;DHT22;4089;52.420;13.334;2023-05-06T11:06:45;10.00;99.90
8093;DHT22;4089;52.420;13.334;2023-05-06T11:09:20;10.00;99.90
8093;DHT22;4089;52.420;13.334;2023-05-06T11:12:04;9.90;99.90
8093;DHT22;4089;52.420;13.334;2023-05-06T11:14:37;10.00;99.90
8093;DHT22;4089;52.420;13.334;2023-05-06T11:17:05;10.10;99.90
8093;DHT22;4089;52.420;13.334;2023-05-06T11:19:35;10.20;99.90
8093;DHT22;4089;52.420;13.334;2023-05-06T11:22:03;10.30;99.90
8093;DHT22;4089;52.420;13.334;2023-05-06T11:24:39;10.20;99.90
8093;DHT22;4089;52.420;13.334;2023-05-06T11:27:07;10.30;99.90
8093;DHT22;4089;52.420;13.334;2023-05-06T11:29:35;10.40;99.90
8093;DHT22;4089;52.420;13.334;2023-05-06T11:32:02;10.30;99.90
8093;DHT22;4089;52.420;13.334;2023-05-06T11:34:31;10.30;99.90
8093;DHT22;4089;52.420;13.334;2023-05-06T11:37:05;10.10;99.90
8093;DHT22;4089;52.420;13.334;2023-05-06T11:39:34;10.10;99.90
8093;DHT22;4089;52.420;13.334;2023-05-06T11:42:06;10.00;99.90
8093;DHT22;4089;52.420;13.334;2023-05-06T11:44:36;10.00;99.90
8093;DHT22;4089;52.420;13.334;2023-05-06T11:47:05;10.00;99.90
8093;DHT22;4089;52.420;13.334;2023-05-06T11:52:03;10.00;99.90
8093;DHT22;4089;52.420;13.334;2023-05-06T11:54:34;9.90;99.90
8093;DHT22;4089;52.420;13.334;2023-05-06T11:57:01;10.00;99.90
8093;DHT22;4089;52.420;13.334;2023-05-06T11:59:35;10.00;99.90
8093;DHT22;4089;52.420;13.334;2023-05-06T12:02:07;10.00;99.90
8093;DHT22;4089;52.420;13.334;2023-05-06T12:04:39;10.00;99.90
8093;DHT22;4089;52.420;13.334;2023-05-06T12:07:08;9.90;99.90
8093;DHT22;4089;52.420;13.334;2023-05-06T12:09:36;9.80;99.90
8093;DHT22;4089;52.420;13.334;2023-05-06T12:12:03;9.70;99.90
8093;DHT22;4089;52.420;13.334;2023-05-06T12:14:31;9.60;99.90
8093;DHT22;4089;52.420;13.334;2023-05-06T12:16:58;9.60;99.90
8093;DHT22;4089;52.420;13.334;2023-05-06T12:19:25;9.60;99.90
8093;DHT22;4089;52.420;13.334;2023-05-06T12:21:52;9.50;99.90
8093;DHT22;4089;52.420;13.334;2023-05-06T12:24:28;9.50;99.90
8093;DHT22;4089;52.420;13.334;2023-05-06T12:26:55;9.40;99.90
8093;DHT22;4089;52.420;13.334;2023-05-06T12:29:22;9.50;99.90
8093;DHT22;4089;52.420;13.334;2023-05-06T12:31:48;9.60;99.90
8093;DHT22;4089;52.420;13.334;2023-05-06T12:34:39;9.70;99.90
8093;DHT22;4089;52.420;13.334;2023-05-06T12:37:07;9.70;99.90
8093;DHT22;4089;52.420;13.334;2023-05-06T12:39:37;9.70;99.90
8093;DHT22;4089;52.420;13.334;2023-05-06T12:42:05;9.70;99.90
8093;DHT22;4089;52.420;13.334;2023-05-06T12:44:39;9.80;99.90
8093;DHT22;4089;52.420;13.334;2023-05-06T12:47:20;9.70;99.90
8093;DHT22;4089;52.420;13.334;2023-05-06T12:52:15;9.80;99.90
8093;DHT22;4089;52.420;13.334;2023-05-06T12:54:42;9.90;99.90
8093;DHT22;4089;52.420;13.334;2023-05-06T12:57:09;9.90;99.90
8093;DHT22;4089;52.420;13.334;2023-05-06T12:59:36;9.80;99.90
8093;DHT22;4089;52.420;13.334;2023-05-06T13:02:04;9.90;99.90
8093;DHT22;4089;52.420;13.334;2023-05-06T13:04:31;9.70;99.90
8093;DHT22;4089;52.420;13.334;2023-05-06T13:06:58;9.70;99.90
8093;DHT22;4089;52.420;13.334;2023-05-06T13:09:25;9.70;99.90
8093;DHT22;4089;52.420;13.334;2023-05-06T13:11:52;9.70;99.90
8093;DHT22;4089;52.420;13.334;2023-05-06T13:14:19;9.60;99.90
8093;DHT22;4089;52.420;13.334;2023-05-06T13:16:46;9.70;99.90
8093;DHT22;4089;52.420;13.334;2023-05-06T13:19:13;9.70;99.90
8093;DHT22;4089;52.420;13.334;2023-05-06T13:21:57;9.70;99.90
8093;DHT22;4089;52.420;13.334;2023-05-06T13:24:24;9.80;99.90
8093;DHT22;4089;52.420;13.334;2023-05-06T13:26:51;10.00;99.90
8093;DHT22;4089;52.420;13.334;2023-05-06T13:29:18;9.90;99.90
8093;DHT22;4089;52.420;13.334;2023-05-06T13:31:44;10.00;99.90
8093;DHT22;4089;52.420;13.334;2023-05-06T13:34:11;9.90;99.90
8093;DHT22;4089;52.420;13.334;2023-05-06T13:36:38;10.00;99.90
8093;DHT22;4089;52.420;13.334;2023-05-06T13:39:05;10.00;99.90
8093;DHT22;4089;52.420;13.334;2023-05-06T13:41:31;10.00;99.90
8093;DHT22;4089;52.420;13.334;2023-05-06T13:43:58;9.90;99.90
8093;DHT22;4089;52.420;13.334;2023-05-06T13:46:25;9.80;99.90
8093;DHT22;4089;52.420;13.334;2023-05-06T13:48:55;9.70;99.90
8093;DHT22;4089;52.420;13.334;2023-05-06T13:51:21;9.70;99.90
8093;DHT22;4089;52.420;13.334;2023-05-06T13:53:48;9.60;99.90
8093;DHT22;4089;52.420;13.334;2023-05-06T13:56:17;9.60;99.90
8093;DHT22;4089;52.420;13.334;2023-05-06T13:58:44;9.80;99.90
8093;DHT22;4089;52.420;13.334;2023-05-06T14:01:10;9.90;99.90
8093;DHT22;4089;52.420;13.334;2023-05-06T14:03:37;10.00;99.90
8093;DHT22;4089;52.420;13.334;2023-05-06T14:06:04;9.90;99.90
8093;DHT22;4089;52.420;13.334;2023-05-06T14:08:31;9.90;99.90
8093;DHT22;4089;52.420;13.334;2023-05-06T14:10:58;9.90;99.90
8093;DHT22;4089;52.420;13.334;2023-05-06T14:13:30;9.90;99.90
8093;DHT22;4089;52.420;13.334;2023-05-06T14:15:57;9.90;99.90
8093;DHT22;4089;52.420;13.334;2023-05-06T14:18:25;9.80;99.90
8093;DHT22;4089;52.420;13.334;2023-05-06T14:20:53;9.90;99.90
8093;DHT22;4089;52.420;13.334;2023-05-06T14:23:20;9.80;99.90
8093;DHT22;4089;52.420;13.334;2023-05-06T14:25:47;9.80;99.90
8093;DHT22;4089;52.420;13.334;2023-05-06T14:28:14;9.70;99.90
8093;DHT22;4089;52.420;13.334;2023-05-06T14:30:41;9.70;99.90
8093;DHT22;4089;52.420;13.334;2023-05-06T14:33:08;9.70;99.90
8093;DHT22;4089;52.420;13.334;2023-05-06T14:35:39;9.80;99.90
8093;DHT22;4089;52.420;13.334;2023-05-06T14:38:08;9.80;99.90
8093;DHT22;4089;52.420;13.334;2023-05-06T14:40:35;9.90;99.90
8093;DHT22;4089;52.420;13.334;2023-05-06T14:43:02;9.90;99.90
8093;DHT22;4089;52.420;13.334;2023-05-06T14:45:29;10.00;99.90
8093;DHT22;4089;52.420;13.334;2023-05-06T14:47:56;9.90;99.90
8093;DHT22;4089;52.420;13.334;2023-05-06T14:50:23;9.90;99.90
8093;DHT22;4089;52.420;13.334;2023-05-06T14:52:50;9.90;99.90
8093;DHT22;4089;52.420;13.334;2023-05-06T14:55:17;9.90;99.90
8093;DHT22;4089;52.420;13.334;2023-05-06T14:57:45;9.80;99.90
8093;DHT22;4089;52.420;13.334;2023-05-06T15:00:13;9.90;99.90
8093;DHT22;4089;52.420;13.334;2023-05-06T15:02:40;9.80;99.90
8093;DHT22;4089;52.420;13.334;2023-05-06T15:05:08;9.80;99.90
8093;DHT22;4089;52.420;13.334;2023-05-06T15:07:36;9.70;99.90
8093;DHT22;4089;52.420;13.334;2023-05-06T15:10:03;9.80;99.90
8093;DHT22;4089;52.420;13.334;2023-05-06T15:12:30;9.80;99.90
8093;DHT22;4089;52.420;13.334;2023-05-06T15:14:57;9.80;99.90
8093;DHT22;4089;52.420;13.334;2023-05-06T15:17:23;9.80;99.90
8093;DHT22;4089;52.420;13.334;2023-05-06T15:19:50;9.80;99.90
8093;DHT22;4089;52.420;13.334;2023-05-06T15:22:17;9.70;99.90
8093;DHT22;4089;52.420;13.334;2023-05-06T15:24:44;9.60;99.90
8093;DHT22;4089;52.420;13.334;2023-05-06T15:27:11;9.50;99.90
8093;DHT22;4089;52.420;13.334;2023-05-06T15:29:37;9.40;99.90
8093;DHT22;4089;52.420;13.334;2023-05-06T15:32:05;9.40;99.90
8093;DHT22;4089;52.420;13.334;2023-05-06T15:34:32;9.30;99.90
8093;DHT22;4089;52.420;13.334;2023-05-06T15:36:59;9.20;99.90
8093;DHT22;4089;52.420;13.334;2023-05-06T15:39:27;9.40;99.90
8093;DHT22;4089;52.420;13.334;2023-05-06T15:41:54;9.50;99.90
8093;DHT22;4089;52.420;13.334;2023-05-06T15:44:23;9.50;99.90
8093;DHT22;4089;52.420;13.334;2023-05-06T15:46:52;9.50;99.90
8093;DHT22;4089;52.420;13.334;2023-05-06T15:49:19;9.50;99.90
8093;DHT22;4089;52.420;13.334;2023-05-06T15:52:05;9.50;99.90
8093;DHT22;4089;52.420;13.334;2023-05-06T15:54:32;9.60;99.90
8093;DHT22;4089;52.420;13.334;2023-05-06T15:57:03;9.60;99.90
8093;DHT22;4089;52.420;13.334;2023-05-06T15:59:32;9.50;99.90
8093;DHT22;4089;52.420;13.334;2023-05-06T16:01:59;9.60;99.90
8093;DHT22;4089;52.420;13.334;2023-05-06T16:04:45;9.50;99.90
8093;DHT22;4089;52.420;13.334;2023-05-06T16:07:13;9.50;99.90
8093;DHT22;4089;52.420;13.334;2023-05-06T16:09:39;9.60;99.90
8093;DHT22;4089;52.420;13.334;2023-05-06T16:12:06;9.70;99.90
8093;DHT22;4089;52.420;13.334;2023-05-06T16:14:33;9.70;99.90
8093;DHT22;4089;52.420;13.334;2023-05-06T16:17:00;9.70;99.90
8093;DHT22;4089;52.420;13.334;2023-05-06T16:19:27;9.70;99.90